Time;durP1;ratioP1;P1;durP2;ratioP2;P2;SDS_P1;SDS_P2;PMS_P1;PMS_P2;Temp;Humidity;BMP_temperature;BMP_pressure;BME280_temperature;BME280_humidity;BME280_pressure;Samples;Min_cycle;Max_cycle;Signal;HPM_P1;HPM_P2
2022/01/25 00:24:31;;;;;;;0.60;0.50;;;4.40;99.90;;;;;;5073139;28;20411;-74
2022/01/25 00:27:07;;;;;;;0.70;0.70;;;4.40;99.90;;;;;;5073069;28;20416;-73
2022/01/25 00:30:24;;;;;;;0.70;0.63;;;4.50;99.90;;;;;;5073600;28;20418;-73
2022/01/25 00:32:22;;;;;;;0.60;0.53;;;4.40;99.90;;;;;;5066642;28;20801;-73
2022/01/25 00:34:48;;;;;;;0.60;0.60;;;4.50;99.90;;;;;;5072489;28;20428;-73
2022/01/25 00:37:14;;;;;;;0.90;0.60;;;4.50;99.90;;;;;;5073034;28;20269;-73
2022/01/25 00:39:40;;;;;;;3.27;1.23;;;4.40;99.90;;;;;;5069950;28;20178;-73
2022/01/25 00:42:08;;;;;;;1.00;1.00;;;4.40;99.90;;;;;;5072612;28;20704;-73
2022/01/25 00:44:39;;;;;;;3.37;2.47;;;4.40;99.90;;;;;;5072376;28;20425;-73
2022/01/25 00:47:09;;;;;;;1.30;1.20;;;4.40;99.90;;;;;;5072257;28;20436;-73
2022/01/25 00:49:38;;;;;;;1.00;0.90;;;4.30;99.90;;;;;;5073254;28;20423;-73
2022/01/25 00:54:48;;;;;;;1.43;1.33;;;4.20;99.90;;;;;;5073020;28;20451;-73
2022/01/25 00:57:15;;;;;;;2.27;2.07;;;4.10;99.90;;;;;;5072900;28;20475;-73
2022/01/25 00:59:41;;;;;;;0.80;0.80;;;4.10;99.90;;;;;;5073035;28;20418;-73
2022/01/25 01:02:14;;;;;;;0.80;0.80;;;4.20;99.90;;;;;;5073056;28;20504;-73
2022/01/25 01:04:42;;;;;;;1.60;1.50;;;4.20;99.90;;;;;;5071157;28;20956;-73
2022/01/25 01:07:11;;;;;;;3.70;1.67;;;4.20;99.90;;;;;;5072657;28;20436;-73
2022/01/25 01:09:39;;;;;;;0.70;0.70;;;4.20;99.90;;;;;;5072337;28;20413;-73
2022/01/25 01:12:12;;;;;;;1.67;1.57;;;4.20;99.90;;;;;;5072403;28;20421;-73
2022/01/25 01:14:53;;;;;;;0.70;0.63;;;4.10;99.90;;;;;;5071917;28;20420;-73
2022/01/25 01:30:55;;;;;;;1.17;1.07;;;4.10;99.90;;;;;;5075975;28;20511;-73
2022/01/25 01:43:37;;;;;;;0.97;0.93;;;4.10;99.90;;;;;;5057453;28;20461;-73
2022/01/25 01:51:07;;;;;;;1.27;0.77;;;4.10;99.90;;;;;;5057643;28;21034;-73
2022/01/25 01:53:34;;;;;;;1.97;0.90;;;4.10;99.90;;;;;;5067951;28;20432;-74
2022/01/25 01:56:00;;;;;;;1.20;1.13;;;4.10;99.90;;;;;;5064032;28;20424;-74
2022/01/25 01:58:26;;;;;;;2.23;1.40;;;4.10;99.90;;;;;;5076762;28;20467;-74
2022/01/25 02:00:52;;;;;;;0.70;0.67;;;4.20;99.90;;;;;;5075355;28;20189;-73
2022/01/25 02:03:18;;;;;;;0.70;0.67;;;4.20;99.90;;;;;;5071838;28;20478;-74
2022/01/25 02:05:44;;;;;;;7.63;2.60;;;4.10;99.90;;;;;;5073608;28;20193;-74
2022/01/25 02:08:10;;;;;;;2.20;2.10;;;4.10;99.90;;;;;;5062674;28;20436;-74
2022/01/25 02:10:36;;;;;;;1.10;0.97;;;4.10;99.90;;;;;;5068874;28;22034;-74
2022/01/25 02:13:07;;;;;;;0.93;0.93;;;4.10;99.90;;;;;;5065560;28;20421;-74
2022/01/25 02:15:33;;;;;;;1.73;1.63;;;4.20;99.90;;;;;;5068304;28;20421;-73
2022/01/25 02:23:27;;;;;;;0.70;0.60;;;3.90;99.90;;;;;;5069284;28;20423;-74
2022/01/25 02:25:55;;;;;;;1.43;0.97;;;3.90;99.90;;;;;;5076203;28;20424;-73
2022/01/25 02:28:23;;;;;;;0.67;0.60;;;3.80;99.90;;;;;;5076168;28;20444;-73
2022/01/25 02:30:49;;;;;;;0.83;0.83;;;3.70;99.90;;;;;;5070105;28;20463;-73
2022/01/25 02:33:14;;;;;;;0.60;0.60;;;3.70;99.90;;;;;;5067872;28;20432;-73
2022/01/25 02:35:43;;;;;;;2.10;1.63;;;3.70;99.90;;;;;;5072267;28;20183;-73
2022/01/25 02:38:08;;;;;;;0.97;0.97;;;3.80;99.90;;;;;;5076247;28;20202;-74
2022/01/25 02:40:35;;;;;;;4.33;1.23;;;3.80;99.90;;;;;;5067663;28;20429;-74
2022/01/25 02:43:01;;;;;;;0.87;0.87;;;3.80;99.90;;;;;;5060855;28;20212;-73
2022/01/25 02:45:35;;;;;;;1.20;1.10;;;3.90;99.90;;;;;;5073507;28;20436;-74
2022/01/25 02:50:49;;;;;;;0.77;0.77;;;4.00;99.90;;;;;;5074865;28;20475;-73
2022/01/25 02:53:15;;;;;;;2.27;2.17;;;4.00;99.90;;;;;;5069447;28;20446;-74
2022/01/25 02:55:40;;;;;;;0.70;0.50;;;4.00;99.90;;;;;;5071566;28;20416;-73
2022/01/25 02:58:08;;;;;;;1.27;1.27;;;4.00;99.90;;;;;;5067730;28;20829;-73
2022/01/25 03:00:34;;;;;;;1.50;1.40;;;4.00;99.90;;;;;;5058491;28;20179;-73
2022/01/25 03:02:59;;;;;;;0.70;0.60;;;3.90;99.90;;;;;;5054721;28;20984;-73
2022/01/25 03:05:25;;;;;;;0.90;0.90;;;3.80;99.90;;;;;;5072282;28;20520;-73
2022/01/25 03:07:50;;;;;;;0.73;0.73;;;3.70;99.90;;;;;;5073806;28;20240;-73
2022/01/25 03:10:16;;;;;;;3.83;2.43;;;3.70;99.90;;;;;;5072547;28;20178;-73
2022/01/25 03:12:53;;;;;;;0.80;0.73;;;3.60;99.90;;;;;;5072586;28;20182;-73
2022/01/25 03:17:51;;;;;;;0.80;0.80;;;3.70;99.90;;;;;;5072521;28;20597;-73
2022/01/25 03:20:21;;;;;;;1.03;1.03;;;3.70;99.90;;;;;;5071474;28;20213;-74
2022/01/25 03:25:19;;;;;;;0.90;0.90;;;3.60;99.90;;;;;;5074182;28;20428;-73
2022/01/25 03:27:45;;;;;;;0.70;0.67;;;3.60;99.90;;;;;;5072754;28;20456;-74
2022/01/25 03:30:11;;;;;;;1.77;1.50;;;3.60;99.90;;;;;;5073205;28;20436;-73
2022/01/25 03:32:36;;;;;;;1.63;1.53;;;3.60;99.90;;;;;;5073305;28;20185;-73
2022/01/25 03:35:03;;;;;;;0.60;0.50;;;3.60;99.90;;;;;;5073212;28;20428;-73
2022/01/25 03:37:28;;;;;;;3.10;2.90;;;3.60;99.90;;;;;;5072543;28;20213;-73
2022/01/25 03:39:54;;;;;;;0.60;0.50;;;3.60;99.90;;;;;;5073987;28;20429;-73
2022/01/25 03:42:20;;;;;;;6.00;2.60;;;3.70;99.90;;;;;;5072462;28;20192;-73
2022/01/25 03:44:45;;;;;;;1.47;1.30;;;3.70;99.90;;;;;;5068763;28;20236;-73
2022/01/25 03:47:15;;;;;;;1.90;1.80;;;3.70;99.90;;;;;;5073010;28;20461;-73
2022/01/25 03:49:51;;;;;;;1.70;1.60;;;3.70;99.90;;;;;;5072874;28;20187;-73
2022/01/25 03:52:32;;;;;;;2.07;1.90;;;3.70;99.90;;;;;;5073880;28;20428;-73
2022/01/25 03:54:58;;;;;;;1.33;1.30;;;3.70;99.90;;;;;;5064350;28;20481;-73
2022/01/25 03:57:25;;;;;;;0.80;0.73;;;3.70;99.90;;;;;;5069152;28;20445;-73
2022/01/25 03:59:51;;;;;;;0.60;0.60;;;3.80;99.90;;;;;;5072051;28;20608;-73
2022/01/25 04:02:17;;;;;;;1.43;1.07;;;3.70;99.90;;;;;;5073583;28;21040;-73
2022/01/25 04:04:45;;;;;;;1.67;1.57;;;3.70;99.90;;;;;;5072357;28;20180;-73
2022/01/25 04:07:12;;;;;;;1.40;1.30;;;3.70;99.90;;;;;;5072798;28;20444;-75
2022/01/25 04:09:39;;;;;;;1.10;0.80;;;3.70;99.90;;;;;;5070350;28;20431;-73
2022/01/25 04:12:05;;;;;;;4.40;1.47;;;3.70;99.90;;;;;;5071702;28;20448;-73
2022/01/25 04:14:31;;;;;;;1.37;1.23;;;3.70;99.90;;;;;;5072329;28;20924;-74
2022/01/25 04:17:01;;;;;;;0.60;0.60;;;3.70;99.90;;;;;;5073535;28;20424;-73
2022/01/25 04:19:41;;;;;;;0.70;0.70;;;3.70;99.90;;;;;;5072530;28;20562;-74
2022/01/25 04:27:26;;;;;;;2.73;2.63;;;3.80;99.90;;;;;;5076263;28;20536;-74
2022/01/25 04:29:52;;;;;;;2.50;1.47;;;3.90;99.90;;;;;;5076205;28;20459;-74
2022/01/25 04:32:20;;;;;;;1.60;1.57;;;3.90;99.90;;;;;;5073959;28;20174;-73
2022/01/25 04:35:08;;;;;;;1.23;0.90;;;4.00;99.90;;;;;;5071392;28;20433;-73
2022/01/25 04:51:32;;;;;;;1.57;1.47;;;4.20;99.90;;;;;;5071980;28;21152;-73
2022/01/25 04:54:09;;;;;;;4.50;2.50;;;4.30;99.90;;;;;;5075478;28;20444;-74
2022/01/25 04:56:42;;;;;;;1.90;1.30;;;4.30;99.90;;;;;;5076494;28;20506;-73
2022/01/25 04:59:33;;;;;;;1.00;1.00;;;4.30;99.90;;;;;;5076530;28;20459;-73
2022/01/25 05:02:04;;;;;;;0.70;0.70;;;4.30;99.90;;;;;;5076161;28;20494;-73
2022/01/25 05:04:34;;;;;;;2.50;2.40;;;4.30;99.90;;;;;;5074712;28;20459;-73
2022/01/25 05:07:12;;;;;;;1.13;0.80;;;4.30;99.90;;;;;;5076757;28;20444;-73
2022/01/25 05:09:38;;;;;;;0.67;0.60;;;4.40;99.90;;;;;;5075273;28;20515;-73
2022/01/25 05:12:05;;;;;;;1.60;1.03;;;4.30;99.90;;;;;;5075993;28;20791;-73
2022/01/25 05:14:35;;;;;;;1.63;1.53;;;4.30;99.90;;;;;;5073957;28;20467;-73
2022/01/25 05:17:04;;;;;;;0.80;0.80;;;4.30;99.90;;;;;;5075547;28;20495;-73
2022/01/25 05:22:21;;;;;;;0.63;0.60;;;4.30;99.90;;;;;;5062605;28;21045;-73
2022/01/25 05:24:48;;;;;;;1.23;1.23;;;4.40;99.90;;;;;;5075788;28;20918;-73
2022/01/25 05:27:17;;;;;;;1.93;1.83;;;4.40;99.90;;;;;;5077081;28;20443;-73
2022/01/25 05:29:42;;;;;;;2.00;1.90;;;4.40;99.90;;;;;;5075862;28;20447;-73
2022/01/25 05:32:08;;;;;;;1.43;1.33;;;4.30;99.90;;;;;;5075001;28;20849;-72
2022/01/25 05:34:34;;;;;;;1.37;1.27;;;4.20;99.90;;;;;;5073057;28;20188;-72
2022/01/25 05:37:00;;;;;;;0.80;0.80;;;4.20;99.90;;;;;;5074749;28;20458;-72
2022/01/25 05:39:33;;;;;;;1.07;0.97;;;4.10;99.90;;;;;;5075178;28;20170;-73
2022/01/25 05:42:16;;;;;;;1.30;1.20;;;4.10;99.90;;;;;;5074284;28;20451;-73
2022/01/25 05:47:25;;;;;;;0.60;0.53;;;3.90;99.90;;;;;;5074345;28;20451;-73
2022/01/25 05:49:50;;;;;;;0.60;0.60;;;3.90;99.90;;;;;;5073078;28;20513;-73
2022/01/25 05:52:16;;;;;;;1.63;0.90;;;3.90;99.90;;;;;;5073226;28;20471;-73
2022/01/25 05:54:41;;;;;;;0.60;0.60;;;3.90;99.90;;;;;;5073978;28;20196;-73
2022/01/25 05:57:07;;;;;;;0.77;0.77;;;4.00;99.90;;;;;;5074471;28;20626;-73
2022/01/25 05:59:32;;;;;;;0.60;0.50;;;4.00;99.90;;;;;;5073447;28;20652;-73
2022/01/25 06:01:58;;;;;;;23.13;2.10;;;4.10;99.90;;;;;;5073465;28;20552;-73
2022/01/25 06:04:24;;;;;;;1.27;1.27;;;4.00;99.90;;;;;;5072161;28;20556;-73
2022/01/25 06:06:52;;;;;;;0.80;0.80;;;3.90;99.90;;;;;;5075330;28;20567;-73
2022/01/25 06:09:18;;;;;;;0.70;0.70;;;4.00;99.90;;;;;;5072637;28;20452;-72
2022/01/25 06:11:43;;;;;;;0.80;0.80;;;4.10;99.90;;;;;;5072407;28;20482;-72
2022/01/25 06:14:09;;;;;;;0.70;0.70;;;4.10;99.90;;;;;;5072901;28;20243;-72
2022/01/25 06:16:35;;;;;;;5.53;1.53;;;4.10;99.90;;;;;;5072784;28;20182;-72
2022/01/25 06:19:01;;;;;;;0.60;0.50;;;4.00;99.90;;;;;;5073884;28;20571;-72
2022/01/25 06:21:27;;;;;;;2.33;2.23;;;4.00;99.90;;;;;;5073548;28;20178;-72
2022/01/25 06:23:53;;;;;;;1.90;1.80;;;4.00;99.90;;;;;;5070562;28;20899;-73
2022/01/25 06:26:20;;;;;;;2.03;1.43;;;4.10;99.90;;;;;;5071175;28;20436;-72
2022/01/25 06:28:45;;;;;;;1.07;1.07;;;4.10;99.90;;;;;;5072637;28;20500;-72
2022/01/25 06:31:11;;;;;;;1.33;1.27;;;4.10;99.90;;;;;;5072946;28;20960;-72
2022/01/25 06:33:41;;;;;;;1.90;1.80;;;4.10;99.90;;;;;;5072726;28;20222;-73
2022/01/25 06:36:07;;;;;;;2.00;1.90;;;4.10;99.90;;;;;;5073150;28;20501;-72
2022/01/25 06:38:32;;;;;;;2.40;1.23;;;4.20;99.90;;;;;;5072814;28;20956;-72
2022/01/25 06:40:58;;;;;;;4.50;4.20;;;4.00;99.90;;;;;;5072661;28;20257;-72
2022/01/25 06:43:23;;;;;;;0.80;0.80;;;3.90;99.90;;;;;;5070298;28;20287;-72
2022/01/25 06:45:56;;;;;;;0.60;0.60;;;3.90;99.90;;;;;;5061631;28;20174;-72
2022/01/25 06:48:22;;;;;;;0.70;0.60;;;3.90;99.90;;;;;;5072385;28;20293;-72
2022/01/25 06:50:47;;;;;;;0.60;0.50;;;3.90;99.90;;;;;;5073233;28;20834;-72
2022/01/25 06:53:13;;;;;;;1.40;1.40;;;4.00;99.90;;;;;;5074748;28;20442;-73
2022/01/25 06:55:40;;;;;;;0.80;0.80;;;4.00;99.90;;;;;;5072870;28;20581;-74
2022/01/25 06:58:06;;;;;;;1.33;1.17;;;4.00;99.90;;;;;;5071427;28;20265;-72
2022/01/25 07:00:31;;;;;;;0.70;0.70;;;4.00;99.90;;;;;;5070476;28;20436;-72
2022/01/25 07:02:57;;;;;;;1.10;1.00;;;4.00;99.90;;;;;;5072338;28;20196;-72
2022/01/25 07:05:22;;;;;;;1.20;1.17;;;4.00;99.90;;;;;;5071555;28;20194;-72
2022/01/25 07:07:48;;;;;;;2.73;0.97;;;4.00;99.90;;;;;;5072820;28;20190;-72
2022/01/25 07:10:14;;;;;;;3.27;3.00;;;3.90;99.90;;;;;;5072959;28;20531;-72
2022/01/25 07:12:40;;;;;;;1.27;1.07;;;4.00;99.90;;;;;;5070640;28;20181;-72
2022/01/25 07:15:06;;;;;;;1.60;1.50;;;3.90;99.90;;;;;;5071144;28;20436;-72
2022/01/25 07:17:32;;;;;;;1.67;1.57;;;4.00;99.90;;;;;;5072459;28;20194;-73
2022/01/25 07:19:58;;;;;;;0.83;0.80;;;4.00;99.90;;;;;;5072232;28;20497;-73
2022/01/25 07:22:23;;;;;;;0.60;0.60;;;4.10;99.90;;;;;;5071632;28;20490;-73
2022/01/25 07:24:49;;;;;;;0.60;0.60;;;4.10;99.90;;;;;;5072392;28;20440;-73
2022/01/25 07:27:14;;;;;;;0.60;0.50;;;4.10;99.90;;;;;;5073285;28;20209;-73
2022/01/25 07:29:40;;;;;;;0.70;0.70;;;4.10;99.90;;;;;;5072900;28;20185;-73
2022/01/25 07:32:06;;;;;;;0.80;0.77;;;4.10;99.90;;;;;;5072467;28;20185;-73
2022/01/25 07:34:31;;;;;;;0.60;0.60;;;4.00;99.90;;;;;;5072733;28;20182;-73
2022/01/25 07:36:57;;;;;;;0.90;0.90;;;4.00;99.90;;;;;;5069666;28;20459;-73
2022/01/25 07:39:23;;;;;;;0.63;0.60;;;4.00;99.90;;;;;;5071019;28;20189;-73
2022/01/25 07:41:49;;;;;;;2.40;1.80;;;4.10;99.90;;;;;;5072809;28;20193;-73
2022/01/25 07:44:15;;;;;;;0.60;0.60;;;4.10;99.90;;;;;;5073520;28;20756;-73
2022/01/25 07:46:41;;;;;;;0.70;0.70;;;4.10;99.90;;;;;;5070606;28;20174;-73
2022/01/25 07:49:06;;;;;;;1.43;1.33;;;4.10;99.90;;;;;;5071966;28;20493;-73
2022/01/25 07:51:35;;;;;;;2.63;1.07;;;4.10;99.90;;;;;;5072200;28;20185;-72
2022/01/25 07:54:01;;;;;;;0.63;0.63;;;4.10;99.90;;;;;;5070894;28;20472;-72
2022/01/25 07:56:27;;;;;;;0.70;0.70;;;4.00;99.90;;;;;;5070618;28;20432;-72
2022/01/25 07:58:53;;;;;;;1.27;1.17;;;3.80;99.90;;;;;;5068549;28;20263;-72
2022/01/25 08:01:19;;;;;;;1.57;1.10;;;3.80;99.90;;;;;;5067008;28;20432;-72
2022/01/25 08:03:45;;;;;;;3.77;3.57;;;3.70;99.90;;;;;;5069076;28;20428;-72
2022/01/25 08:06:13;;;;;;;2.27;2.07;;;3.70;99.90;;;;;;5070575;28;20429;-72
2022/01/25 08:08:39;;;;;;;0.80;0.80;;;3.80;99.90;;;;;;5071905;28;20439;-72
2022/01/25 08:11:04;;;;;;;0.70;0.70;;;3.80;99.90;;;;;;5071142;28;20428;-72
2022/01/25 08:13:30;;;;;;;0.60;0.50;;;3.90;99.90;;;;;;5071818;28;20436;-72
2022/01/25 08:15:56;;;;;;;6.50;2.10;;;3.80;99.90;;;;;;5069921;28;20174;-73
2022/01/25 08:18:22;;;;;;;2.73;1.03;;;3.90;99.90;;;;;;5070867;28;20473;-72
2022/01/25 08:20:47;;;;;;;0.60;0.50;;;3.90;99.90;;;;;;5070760;28;20510;-72
2022/01/25 08:23:13;;;;;;;16.97;2.37;;;3.80;99.90;;;;;;5072805;28;20201;-73
2022/01/25 08:25:39;;;;;;;1.07;1.03;;;3.70;99.90;;;;;;5069554;28;20352;-73
2022/01/25 08:28:05;;;;;;;1.53;1.30;;;3.70;99.90;;;;;;5073244;28;20449;-73
2022/01/25 08:30:31;;;;;;;2.40;2.20;;;3.60;99.90;;;;;;5071768;28;20193;-73
2022/01/25 08:32:57;;;;;;;1.53;1.43;;;3.70;99.90;;;;;;5071654;28;20436;-73
2022/01/25 08:35:22;;;;;;;4.73;2.73;;;3.70;99.90;;;;;;5071709;28;20208;-73
2022/01/25 08:37:48;;;;;;;1.00;1.00;;;3.70;99.90;;;;;;5072057;28;20659;-73
2022/01/25 08:40:14;;;;;;;1.57;1.47;;;3.70;99.90;;;;;;5071551;28;20311;-73
2022/01/25 08:42:39;;;;;;;2.50;2.40;;;3.60;99.90;;;;;;5071182;28;20197;-73
2022/01/25 08:45:07;;;;;;;0.67;0.60;;;3.70;99.90;;;;;;5072637;28;20275;-74
2022/01/25 08:47:33;;;;;;;7.30;1.57;;;3.80;99.90;;;;;;5072391;28;20190;-73
2022/01/25 08:49:59;;;;;;;1.60;1.50;;;3.90;99.90;;;;;;5055595;28;20464;-73
2022/01/25 08:52:27;;;;;;;1.73;0.77;;;4.00;99.90;;;;;;5072191;28;20434;-73
2022/01/25 08:54:52;;;;;;;1.00;1.00;;;4.00;99.90;;;;;;5072725;28;20448;-73
2022/01/25 08:57:18;;;;;;;1.53;1.43;;;4.10;99.90;;;;;;5072915;28;20451;-73
2022/01/25 08:59:44;;;;;;;1.00;1.00;;;4.00;99.90;;;;;;5069845;28;20189;-73
2022/01/25 09:02:10;;;;;;;1.67;1.60;;;3.80;99.90;;;;;;5072088;28;20284;-73
2022/01/25 09:04:35;;;;;;;0.60;0.60;;;3.80;99.90;;;;;;5070591;28;20527;-73
2022/01/25 09:07:01;;;;;;;1.27;1.17;;;3.90;99.90;;;;;;5069885;28;20601;-73
2022/01/25 09:09:26;;;;;;;1.10;1.00;;;3.90;99.90;;;;;;5071912;28;20632;-73
2022/01/25 09:11:52;;;;;;;1.47;1.13;;;3.80;99.90;;;;;;5070966;28;22286;-73
2022/01/25 09:14:17;;;;;;;4.23;1.27;;;3.80;99.90;;;;;;5070876;28;20179;-73
2022/01/25 09:16:43;;;;;;;3.63;1.57;;;3.70;99.90;;;;;;5071751;28;20177;-72
2022/01/25 09:19:09;;;;;;;0.60;0.57;;;3.80;99.90;;;;;;5067789;28;20699;-72
2022/01/25 09:21:35;;;;;;;2.40;2.30;;;3.80;99.90;;;;;;5070349;28;20202;-72
2022/01/25 09:24:01;;;;;;;0.60;0.50;;;3.90;99.90;;;;;;5069802;28;20175;-72
2022/01/25 09:26:28;;;;;;;0.60;0.60;;;3.90;99.90;;;;;;5071267;28;20427;-73
2022/01/25 09:28:55;;;;;;;10.33;3.63;;;3.90;99.90;;;;;;5070728;28;20448;-73
2022/01/25 09:31:21;;;;;;;1.03;1.03;;;4.00;99.90;;;;;;5072088;28;20517;-73
2022/01/25 09:33:47;;;;;;;1.10;0.90;;;4.00;99.90;;;;;;5071410;28;20428;-73
2022/01/25 09:36:12;;;;;;;0.73;0.73;;;4.10;99.90;;;;;;5071962;28;20502;-73
2022/01/25 09:38:38;;;;;;;2.47;2.33;;;4.10;99.90;;;;;;5071688;28;20186;-73
2022/01/25 09:41:04;;;;;;;0.93;0.87;;;4.10;99.90;;;;;;5074819;28;20514;-73
2022/01/25 09:43:31;;;;;;;1.93;1.83;;;3.90;99.90;;;;;;5070838;28;20311;-73
2022/01/25 09:45:56;;;;;;;0.60;0.50;;;3.80;99.90;;;;;;5072808;28;20200;-73
2022/01/25 09:48:23;;;;;;;1.93;1.80;;;3.80;99.90;;;;;;5074486;28;20802;-73
2022/01/25 09:50:49;;;;;;;1.17;1.10;;;3.90;99.90;;;;;;5075366;28;20167;-73
2022/01/25 09:53:14;;;;;;;1.17;1.03;;;3.90;99.90;;;;;;5073540;28;20443;-73
2022/01/25 09:55:43;;;;;;;0.90;0.90;;;4.10;99.90;;;;;;5074970;28;20253;-73
2022/01/25 09:58:12;;;;;;;2.70;1.13;;;4.10;99.90;;;;;;5072567;28;20289;-73
2022/01/25 10:00:39;;;;;;;1.33;1.23;;;4.20;99.90;;;;;;5072720;28;20432;-73
2022/01/25 10:03:24;;;;;;;0.60;0.60;;;4.20;99.90;;;;;;5073266;28;20451;-73
2022/01/25 10:05:51;;;;;;;0.60;0.50;;;4.20;99.90;;;;;;5073379;28;20534;-73
2022/01/25 10:08:25;;;;;;;2.13;2.00;;;4.40;99.90;;;;;;5060759;28;20448;-73
2022/01/25 10:10:58;;;;;;;0.70;0.60;;;4.30;99.90;;;;;;5071522;28;20486;-73
2022/01/25 10:13:26;;;;;;;0.77;0.77;;;4.30;99.90;;;;;;5072852;28;20432;-73
2022/01/25 10:16:04;;;;;;;3.20;3.00;;;4.40;99.90;;;;;;5070076;28;20467;-73
2022/01/25 10:18:59;;;;;;;1.57;1.07;;;4.50;99.90;;;;;;5067595;28;20821;-73
2022/01/25 10:21:31;;;;;;;4.20;2.10;;;4.30;99.90;;;;;;5063843;28;20445;-73
2022/01/25 10:24:04;;;;;;;0.60;0.60;;;4.40;99.90;;;;;;5070418;28;20432;-73
2022/01/25 10:26:40;;;;;;;1.20;1.10;;;4.40;99.90;;;;;;5068304;28;20535;-73
2022/01/25 10:29:10;;;;;;;1.03;0.90;;;4.40;99.90;;;;;;5072013;28;20543;-73
2022/01/25 10:31:42;;;;;;;1.10;0.93;;;4.40;99.90;;;;;;5065083;28;20428;-73
2022/01/25 10:34:09;;;;;;;3.20;1.63;;;4.50;99.90;;;;;;5066433;28;20794;-73
2022/01/25 10:36:45;;;;;;;0.77;0.77;;;4.50;99.90;;;;;;5087542;28;20437;-73
2022/01/25 10:39:12;;;;;;;1.43;1.37;;;4.50;99.90;;;;;;5073310;28;20515;-73
2022/01/25 10:41:39;;;;;;;0.70;0.70;;;4.40;99.90;;;;;;5071903;28;20482;-73
2022/01/25 10:44:06;;;;;;;0.60;0.50;;;4.30;99.90;;;;;;5067983;28;20428;-73
2022/01/25 10:46:33;;;;;;;2.00;0.90;;;4.20;99.90;;;;;;5068074;28;20447;-73
2022/01/25 10:49:12;;;;;;;1.20;0.97;;;4.10;99.90;;;;;;5069367;28;20558;-73
2022/01/25 10:51:45;;;;;;;3.73;1.37;;;4.20;99.90;;;;;;5071684;28;20517;-73
2022/01/25 10:54:12;;;;;;;1.03;0.97;;;4.20;99.90;;;;;;5071843;28;20451;-73
2022/01/25 10:56:37;;;;;;;1.87;1.77;;;4.20;99.90;;;;;;5071673;28;20440;-73
2022/01/25 10:59:06;;;;;;;1.17;1.07;;;4.30;99.90;;;;;;5072625;28;20444;-73
2022/01/25 11:01:40;;;;;;;3.93;0.90;;;4.30;99.90;;;;;;5071379;28;20189;-73
2022/01/25 11:04:13;;;;;;;0.60;0.50;;;4.30;99.90;;;;;;5074541;28;20447;-73
2022/01/25 11:06:41;;;;;;;1.77;1.67;;;4.10;99.90;;;;;;5072724;28;20448;-73
2022/01/25 11:09:10;;;;;;;2.10;2.00;;;4.20;99.90;;;;;;5073526;28;20523;-73
2022/01/25 11:11:40;;;;;;;0.90;0.90;;;4.40;99.90;;;;;;5068444;28;20428;-72
2022/01/25 11:16:53;;;;;;;0.60;0.50;;;4.50;99.90;;;;;;5071964;28;20442;-71
2022/01/25 11:19:19;;;;;;;1.07;1.07;;;4.60;99.90;;;;;;5068602;28;20424;-72
2022/01/25 11:21:45;;;;;;;1.60;1.27;;;4.70;99.90;;;;;;5070112;28;20468;-72
2022/01/25 11:24:13;;;;;;;0.70;0.70;;;4.80;99.90;;;;;;5068014;28;20475;-73
2022/01/25 11:26:41;;;;;;;3.87;3.57;;;4.80;99.90;;;;;;5085613;28;20524;-73
2022/01/25 11:29:07;;;;;;;1.30;1.17;;;4.70;99.90;;;;;;5071429;28;20456;-73
2022/01/25 11:31:34;;;;;;;4.53;1.37;;;4.60;99.90;;;;;;5068497;28;20444;-73
2022/01/25 11:34:00;;;;;;;1.50;1.37;;;4.50;99.90;;;;;;5071323;28;20456;-73
2022/01/25 11:36:26;;;;;;;0.80;0.80;;;4.50;99.90;;;;;;5069229;28;20845;-72
2022/01/25 11:38:54;;;;;;;0.60;0.50;;;4.50;99.90;;;;;;5067101;28;20444;-73
2022/01/25 11:41:24;;;;;;;0.87;0.87;;;4.60;99.90;;;;;;5082415;28;20178;-73
2022/01/25 11:44:09;;;;;;;1.33;1.23;;;4.70;99.90;;;;;;5070752;28;20439;-73
2022/01/25 11:46:45;;;;;;;1.37;1.27;;;4.50;99.90;;;;;;5067314;28;20956;-73
2022/01/25 11:49:17;;;;;;;0.70;0.60;;;4.50;99.90;;;;;;5069920;28;20920;-73
2022/01/25 11:51:43;;;;;;;1.30;0.97;;;4.50;99.90;;;;;;5068716;28;20447;-73
2022/01/25 11:54:09;;;;;;;2.10;1.93;;;4.50;99.90;;;;;;5069429;28;20444;-74
2022/01/25 11:56:38;;;;;;;2.13;2.03;;;4.50;99.90;;;;;;5069577;28;20440;-74
2022/01/25 11:59:05;;;;;;;9.43;2.20;;;4.70;99.90;;;;;;5084116;28;20237;-71
2022/01/25 12:01:33;;;;;;;2.60;1.33;;;4.80;99.90;;;;;;5068056;28;20531;-72
2022/01/25 12:04:05;;;;;;;5.63;1.57;;;4.80;99.90;;;;;;5070243;28;20786;-72
2022/01/25 12:06:37;;;;;;;1.03;1.03;;;4.90;99.90;;;;;;5067604;28;20424;-72
2022/01/25 12:09:13;;;;;;;1.47;1.37;;;4.90;99.90;;;;;;5068016;28;20444;-72
2022/01/25 12:11:50;;;;;;;2.20;1.43;;;5.00;99.90;;;;;;5067772;28;21077;-72
2022/01/25 12:14:18;;;;;;;6.37;2.87;;;4.90;99.90;;;;;;5068711;28;20503;-72
2022/01/25 12:16:48;;;;;;;1.93;1.83;;;4.80;99.90;;;;;;5084620;28;20434;-73
2022/01/25 12:19:46;;;;;;;1.60;1.50;;;5.00;99.90;;;;;;5067812;28;20416;-73
2022/01/25 12:22:28;;;;;;;1.67;0.90;;;4.90;99.90;;;;;;5072031;28;20545;-73
2022/01/25 12:27:44;;;;;;;6.60;2.03;;;4.50;99.90;;;;;;5071739;28;20536;-73
2022/01/25 12:30:17;;;;;;;2.70;2.10;;;4.60;99.90;;;;;;5065720;28;20458;-72
2022/01/25 12:33:00;;;;;;;3.27;0.90;;;4.70;99.90;;;;;;5070972;28;20777;-73
2022/01/25 12:35:42;;;;;;;1.80;1.70;;;4.90;99.90;;;;;;5060530;28;20941;-73
2022/01/25 12:38:19;;;;;;;0.87;0.87;;;5.00;99.90;;;;;;5072368;28;20580;-73
2022/01/25 12:41:00;;;;;;;4.10;1.50;;;4.80;99.90;;;;;;5071549;28;20874;-73
2022/01/25 12:43:27;;;;;;;1.73;1.17;;;4.70;99.90;;;;;;5070478;28;20471;-73
2022/01/25 12:46:12;;;;;;;0.83;0.83;;;4.90;99.90;;;;;;5068300;28;20460;-72
2022/01/25 12:48:46;;;;;;;1.80;1.70;;;5.00;99.90;;;;;;5070235;28;20451;-73
2022/01/25 12:51:17;;;;;;;0.67;0.50;;;5.10;99.90;;;;;;5073492;28;20416;-73
2022/01/25 12:53:47;;;;;;;2.97;2.70;;;5.20;99.90;;;;;;5072736;28;20440;-73
2022/01/25 12:56:16;;;;;;;1.67;1.57;;;5.20;99.90;;;;;;5071980;28;20508;-73
2022/01/25 12:58:45;;;;;;;1.43;1.33;;;5.20;99.90;;;;;;5072082;28;20508;-73
2022/01/25 13:01:14;;;;;;;0.70;0.70;;;5.20;99.90;;;;;;5070683;28;20444;-72
2022/01/25 13:03:43;;;;;;;3.60;2.20;;;5.40;99.90;;;;;;5071382;28;20479;-72
2022/01/25 13:06:20;;;;;;;1.23;1.13;;;5.40;99.90;;;;;;5071814;28;20431;-74
2022/01/25 13:11:37;;;;;;;4.10;3.80;;;5.40;99.90;;;;;;5071024;28;20432;-72
2022/01/25 13:17:03;;;;;;;3.77;3.43;;;5.50;99.90;;;;;;5076444;28;20420;-72
2022/01/25 13:19:40;;;;;;;3.33;1.63;;;5.60;99.90;;;;;;5075395;28;20424;-72
2022/01/25 13:22:15;;;;;;;10.10;1.90;;;5.60;99.90;;;;;;5074354;28;20456;-73
2022/01/25 13:24:56;;;;;;;3.40;3.20;;;5.20;99.90;;;;;;5075000;28;20568;-72
2022/01/25 13:27:22;;;;;;;1.10;1.10;;;5.20;99.90;;;;;;5072922;28;20439;-72
2022/01/25 13:32:52;;;;;;;3.63;3.47;;;5.40;99.90;;;;;;5064957;28;20474;-72
2022/01/25 13:35:22;;;;;;;0.70;0.70;;;5.50;99.90;;;;;;5076146;28;20515;-73
2022/01/25 13:38:03;;;;;;;0.67;0.60;;;5.60;99.90;;;;;;5073675;28;20979;-73
2022/01/25 13:40:37;;;;;;;1.73;1.63;;;5.50;99.90;;;;;;5074518;28;20420;-73
2022/01/25 13:43:32;;;;;;;3.70;3.13;;;5.60;99.90;;;;;;5074163;28;20983;-73
2022/01/25 13:46:03;;;;;;;0.80;0.80;;;5.60;99.90;;;;;;5065687;28;20861;-73
2022/01/25 13:48:29;;;;;;;6.30;1.60;;;5.70;99.90;;;;;;5070613;28;20879;-73
2022/01/25 13:50:58;;;;;;;1.23;1.17;;;5.60;99.90;;;;;;5067968;28;20425;-73
2022/01/25 13:53:26;;;;;;;1.73;1.63;;;5.60;99.90;;;;;;5082995;28;20441;-73
2022/01/25 13:55:54;;;;;;;1.53;1.23;;;5.60;99.90;;;;;;5072124;28;20428;-72
2022/01/25 13:58:25;;;;;;;2.37;2.20;;;5.60;99.90;;;;;;5075375;28;20460;-72
2022/01/25 14:00:52;;;;;;;0.87;0.87;;;5.60;99.90;;;;;;5071482;28;20487;-72
2022/01/25 14:03:27;;;;;;;1.37;1.03;;;5.60;99.90;;;;;;5074884;28;20464;-73
2022/01/25 14:05:54;;;;;;;2.40;1.83;;;5.60;99.90;;;;;;5074809;28;20467;-72
2022/01/25 14:08:42;;;;;;;2.97;2.77;;;5.50;99.90;;;;;;5074241;28;21036;-73
2022/01/25 14:11:21;;;;;;;7.93;2.70;;;5.60;99.90;;;;;;5071499;28;20955;-73
2022/01/25 14:24:37;;;;;;;0.80;0.80;;;5.50;99.90;;;;;;5072942;28;20432;-72
2022/01/25 14:27:26;;;;;;;1.63;1.57;;;5.50;99.90;;;;;;5071648;28;20474;-72
2022/01/25 14:29:53;;;;;;;1.53;1.43;;;5.50;99.90;;;;;;5072978;28;20173;-73
2022/01/25 14:32:32;;;;;;;0.97;0.97;;;5.50;99.90;;;;;;5074427;28;20470;-73
2022/01/25 14:35:05;;;;;;;0.97;0.97;;;5.50;99.90;;;;;;5074464;28;20412;-73
2022/01/25 14:37:30;;;;;;;2.20;1.90;;;5.50;99.90;;;;;;5073612;28;20510;-73
2022/01/25 14:40:11;;;;;;;2.03;1.03;;;5.60;99.90;;;;;;5073495;28;20460;-73
2022/01/25 14:42:41;;;;;;;0.83;0.83;;;5.50;99.90;;;;;;5073625;28;20193;-73
2022/01/25 14:45:13;;;;;;;1.77;1.33;;;5.50;99.90;;;;;;5074030;28;20421;-74
2022/01/25 14:47:41;;;;;;;2.43;2.23;;;5.40;99.90;;;;;;5071411;28;20550;-72
2022/01/25 14:50:24;;;;;;;1.37;1.27;;;5.40;99.90;;;;;;5067376;28;20471;-72
2022/01/25 14:53:12;;;;;;;1.33;1.00;;;5.40;99.90;;;;;;5074336;28;20428;-73
2022/01/25 14:55:40;;;;;;;0.67;0.50;;;5.20;99.90;;;;;;5070461;28;20440;-72
2022/01/25 15:00:46;;;;;;;0.60;0.60;;;5.20;99.90;;;;;;5069086;28;20519;-73
2022/01/25 15:03:12;;;;;;;0.70;0.70;;;5.10;99.90;;;;;;5067137;28;20452;-72
2022/01/25 15:05:38;;;;;;;0.70;0.70;;;5.10;99.90;;;;;;5067119;28;20688;-72
2022/01/25 15:08:09;;;;;;;2.17;2.07;;;5.10;99.90;;;;;;5067781;28;20201;-73